Osterild, Denmark
Current Conditions -  °F | °C
As of 5:20 PM on Thursday 29 Jan 2015 (Local Time) from EKYT Reporting Station
Scattered Clouds Scattered Clouds  
Wind Chill: 26°   Ceiling: Unl
Heat Index: 34°   Visibility: 6mi
Dew Point: 32°   Wind: 10mph
Humidity: 93%   Direction: 190°S
Pressure: 28.7"   Gusts: NA
Location:  57.03°N, 8.86°E
Report Text: EKYT 291620Z 19009KT 9999 FEW013 SCT170 01/M00 Q0972 R26/CLRD//
Loading
Personal Weather Stations






























Interactive Weather Map New forecast layout! Learn more

10-Day Weather Forecast

Advertisements
Track Severe Weather on mobile